createdAt,value
2023-03-06T00:00:49.761Z,5.80
2023-03-06T00:03:19.962Z,6.20
2023-03-06T00:05:47.463Z,4.30
2023-03-06T00:08:14.457Z,2.70
2023-03-06T00:10:41.016Z,4.00
2023-03-06T00:13:14.421Z,3.80
2023-03-06T00:15:41.905Z,3.60
2023-03-06T00:18:08.893Z,2.20
2023-03-06T00:20:36.166Z,3.40
2023-03-06T00:23:04.001Z,3.30
2023-03-06T00:25:30.730Z,6.10
2023-03-06T00:27:57.482Z,3.70
2023-03-06T00:30:24.878Z,5.10
2023-03-06T00:32:53.353Z,2.00
2023-03-06T00:35:20.410Z,2.20
2023-03-06T00:37:47.053Z,2.40
2023-03-06T00:40:19.353Z,4.40
2023-03-06T00:42:47.483Z,2.10
2023-03-06T00:45:14.680Z,4.60
2023-03-06T00:47:41.578Z,3.80
2023-03-06T00:50:09.853Z,4.70
2023-03-06T00:52:36.702Z,4.30
2023-03-06T00:55:05.242Z,2.60
2023-03-06T00:57:31.729Z,3.90
2023-03-06T00:59:58.438Z,1.10
2023-03-06T01:02:25.581Z,2.80
2023-03-06T01:04:52.027Z,2.50
2023-03-06T01:07:18.765Z,2.70
2023-03-06T01:09:45.357Z,2.80
2023-03-06T01:12:11.824Z,2.20
2023-03-06T01:14:38.519Z,3.60
2023-03-06T01:17:05.186Z,3.80
2023-03-06T01:19:31.810Z,4.00
2023-03-06T01:21:58.353Z,6.10
2023-03-06T01:24:25.296Z,3.40
2023-03-06T01:26:51.960Z,5.80
2023-03-06T01:29:18.491Z,4.10
2023-03-06T01:31:44.961Z,3.70
2023-03-06T01:34:11.508Z,3.80
2023-03-06T01:36:38.008Z,3.60
2023-03-06T01:39:04.686Z,5.20
2023-03-06T01:41:32.101Z,4.40
2023-03-06T01:43:58.554Z,3.60
2023-03-06T01:46:33.496Z,4.70
2023-03-06T01:49:21.404Z,4.20
2023-03-06T01:51:57.129Z,3.10
2023-03-06T01:54:27.886Z,3.10
2023-03-06T01:57:04.760Z,3.30
2023-03-06T01:59:35.608Z,2.10
2023-03-06T02:02:06.040Z,4.30
2023-03-06T02:04:33.790Z,2.90
2023-03-06T02:07:04.214Z,5.80
2023-03-06T02:09:33.021Z,3.10
2023-03-06T02:12:01.910Z,2.50
2023-03-06T02:14:29.649Z,2.60
2023-03-06T02:16:56.201Z,2.10
2023-03-06T02:19:55.640Z,1.60
2023-03-06T02:22:28.026Z,2.20
2023-03-06T02:25:07.237Z,4.50
2023-03-06T02:27:34.343Z,1.30
2023-03-06T02:30:10.832Z,2.80
2023-03-06T02:32:37.405Z,3.40
2023-03-06T02:35:06.468Z,5.40
2023-03-06T02:37:32.890Z,3.10
2023-03-06T02:40:11.624Z,2.50
2023-03-06T02:42:49.670Z,1.10
2023-03-06T02:45:43.715Z,2.10
2023-03-06T02:48:12.727Z,2.60
2023-03-06T02:50:40.926Z,5.50
2023-03-06T02:53:10.151Z,2.90
2023-03-06T02:55:37.228Z,4.60
2023-03-06T02:58:04.175Z,2.90
2023-03-06T03:00:32.710Z,3.10
2023-03-06T03:03:00.517Z,1.90
2023-03-06T03:05:27.065Z,1.70
2023-03-06T03:07:53.778Z,1.90
2023-03-06T03:10:21.042Z,2.50
2023-03-06T03:12:48.514Z,2.60
2023-03-06T03:15:15.060Z,3.20
2023-03-06T03:17:42.338Z,2.30
2023-03-06T03:20:15.663Z,4.70
2023-03-06T03:22:42.440Z,3.10
2023-03-06T03:25:09.265Z,2.30
2023-03-06T03:27:35.721Z,0.80
2023-03-06T03:30:02.367Z,4.30
2023-03-06T03:32:28.916Z,5.40
2023-03-06T03:34:55.955Z,3.30
2023-03-06T03:37:22.620Z,4.80
2023-03-06T03:39:49.330Z,2.30
2023-03-06T03:42:15.766Z,1.80
2023-03-06T03:44:42.203Z,5.70
2023-03-06T03:47:08.670Z,3.20
2023-03-06T03:49:35.064Z,4.30
2023-03-06T03:52:01.584Z,3.00
2023-03-06T03:54:28.344Z,7.40
2023-03-06T03:56:55.041Z,1.20
2023-03-06T03:59:21.645Z,1.10
2023-03-06T04:01:48.946Z,1.70
2023-03-06T04:04:15.677Z,3.20
2023-03-06T04:06:42.213Z,3.70
2023-03-06T04:09:08.759Z,3.80
2023-03-06T04:11:35.327Z,2.20
2023-03-06T04:14:02.759Z,4.40
2023-03-06T04:16:30.185Z,1.90
2023-03-06T04:18:59.474Z,2.70
2023-03-06T04:21:27.165Z,1.70
2023-03-06T04:23:53.955Z,4.30
2023-03-06T04:26:20.417Z,3.40
2023-03-06T04:28:46.933Z,2.20
2023-03-06T04:31:13.787Z,2.00
2023-03-06T04:33:40.330Z,2.00
2023-03-06T04:36:07.192Z,3.60
2023-03-06T04:38:33.670Z,1.60
2023-03-06T04:41:00.158Z,4.30
2023-03-06T04:43:26.850Z,4.50
2023-03-06T04:45:53.413Z,1.50
2023-03-06T04:48:19.855Z,1.50
2023-03-06T04:50:46.405Z,2.90
2023-03-06T04:53:14.108Z,2.10
2023-03-06T04:55:40.596Z,2.20
2023-03-06T04:58:07.029Z,4.40
2023-03-06T05:00:34.052Z,4.90
2023-03-06T05:03:01.727Z,3.40
2023-03-06T05:05:28.754Z,2.00
2023-03-06T05:07:55.805Z,2.10
2023-03-06T05:10:22.657Z,3.00
2023-03-06T05:12:49.342Z,4.00
2023-03-06T05:15:16.633Z,4.70
2023-03-06T05:17:43.579Z,3.20
2023-03-06T05:20:13.018Z,5.30
2023-03-06T05:22:40.341Z,5.00
2023-03-06T05:25:09.861Z,3.90
2023-03-06T05:27:37.664Z,3.60
2023-03-06T05:30:05.215Z,5.30
2023-03-06T05:32:33.834Z,5.40
2023-03-06T05:35:03.545Z,3.90
2023-03-06T05:37:30.399Z,2.30
2023-03-06T05:39:57.119Z,3.20
2023-03-06T05:42:23.778Z,5.20
2023-03-06T05:44:50.391Z,3.60
2023-03-06T05:47:16.980Z,6.80
2023-03-06T05:49:43.474Z,3.60
2023-03-06T05:52:12.540Z,5.60
2023-03-06T05:54:39.044Z,7.50
2023-03-06T05:57:05.721Z,9.30
2023-03-06T05:59:32.693Z,6.50
2023-03-06T06:02:00.568Z,7.50
2023-03-06T06:04:27.260Z,7.40
2023-03-06T06:06:57.929Z,6.60
2023-03-06T06:09:25.974Z,5.50
2023-03-06T06:12:01.249Z,7.80
2023-03-06T06:14:30.435Z,7.40
2023-03-06T06:16:56.892Z,5.90
2023-03-06T06:19:23.983Z,6.00
2023-03-06T06:21:53.594Z,8.10
2023-03-06T06:24:24.580Z,6.80
2023-03-06T06:26:54.649Z,8.60
2023-03-06T06:29:22.897Z,8.20
2023-03-06T06:31:50.787Z,9.60
2023-03-06T06:34:18.683Z,8.10
2023-03-06T06:36:45.911Z,7.50
2023-03-06T06:39:18.652Z,8.00
2023-03-06T06:41:59.754Z,8.60
2023-03-06T06:44:28.982Z,9.50
2023-03-06T06:49:41.906Z,6.90
2023-03-06T06:52:10.150Z,7.50
2023-03-06T06:54:36.608Z,6.70
2023-03-06T06:57:03.190Z,8.00
2023-03-06T06:59:29.677Z,5.10
2023-03-06T07:01:58.375Z,5.00
2023-03-06T07:04:24.809Z,4.80
2023-03-06T07:06:55.702Z,6.00
2023-03-06T07:09:23.097Z,5.90
2023-03-06T07:11:49.797Z,5.70
2023-03-06T07:14:16.291Z,6.80
2023-03-06T07:16:42.844Z,5.40
2023-03-06T07:19:09.219Z,4.80
2023-03-06T07:21:35.750Z,7.10
2023-03-06T07:24:02.436Z,9.60
2023-03-06T07:26:30.025Z,6.30
2023-03-06T07:28:56.715Z,2.00
2023-03-06T07:31:27.621Z,11.10
2023-03-06T07:33:55.059Z,4.30
2023-03-06T07:36:23.233Z,13.90
2023-03-06T07:38:49.891Z,5.00
2023-03-06T07:41:19.421Z,2.40
2023-03-06T07:43:47.764Z,3.30
2023-03-06T07:46:14.604Z,5.80
2023-03-06T07:48:42.219Z,3.30
2023-03-06T07:51:16.593Z,4.20
2023-03-06T07:53:44.169Z,4.00
2023-03-06T07:56:12.140Z,5.90
2023-03-06T07:58:43.480Z,3.10
2023-03-06T08:01:19.133Z,5.20
2023-03-06T08:03:46.029Z,4.90
2023-03-06T08:06:17.231Z,3.50
2023-03-06T08:08:46.053Z,3.20
2023-03-06T08:11:15.813Z,5.40
2023-03-06T08:13:43.446Z,4.50
2023-03-06T08:16:10.875Z,6.50
2023-03-06T08:18:39.123Z,5.10
2023-03-06T08:21:09.292Z,3.60
2023-03-06T08:23:36.864Z,3.70
2023-03-06T08:26:12.654Z,4.40
2023-03-06T08:28:39.933Z,8.30
2023-03-06T08:31:11.982Z,3.80
2023-03-06T08:33:40.145Z,6.30
2023-03-06T08:36:07.011Z,5.40
2023-03-06T08:38:33.468Z,3.20
2023-03-06T08:41:00.192Z,7.40
2023-03-06T08:43:26.834Z,11.30
2023-03-06T08:45:57.023Z,2.90
2023-03-06T08:48:24.700Z,5.80
2023-03-06T08:50:52.199Z,3.40
2023-03-06T08:53:19.826Z,6.10
2023-03-06T08:55:47.074Z,8.40
2023-03-06T08:58:13.514Z,3.60
2023-03-06T09:00:40.002Z,3.60
2023-03-06T09:03:06.563Z,2.90
2023-03-06T09:05:33.550Z,5.80
2023-03-06T09:08:00.089Z,4.00
2023-03-06T09:10:28.260Z,4.20
2023-03-06T09:12:55.424Z,5.90
2023-03-06T09:15:23.755Z,5.50
2023-03-06T09:17:51.155Z,4.90
2023-03-06T09:20:18.495Z,7.50
2023-03-06T09:22:45.265Z,3.40
2023-03-06T09:25:13.375Z,5.80
2023-03-06T09:27:40.734Z,2.70
2023-03-06T09:30:08.594Z,3.70
2023-03-06T09:32:35.189Z,4.00
2023-03-06T09:35:01.711Z,5.00
2023-03-06T09:37:28.327Z,4.90
2023-03-06T09:39:54.755Z,4.20
2023-03-06T09:42:23.067Z,3.30
2023-03-06T09:45:00.522Z,3.20
2023-03-06T09:47:57.263Z,4.10
2023-03-06T09:50:30.948Z,3.30
2023-03-06T09:53:59.377Z,3.50
2023-03-06T09:56:31.344Z,4.10
2023-03-06T09:59:16.895Z,3.20
2023-03-06T10:01:59.652Z,4.00
2023-03-06T10:04:45.545Z,4.90
2023-03-06T10:07:11.951Z,3.40
2023-03-06T10:09:47.620Z,7.70
2023-03-06T10:12:25.136Z,6.10
2023-03-06T10:14:59.689Z,6.40
2023-03-06T10:17:35.043Z,3.80
2023-03-06T10:20:29.242Z,5.40
2023-03-06T10:23:26.563Z,9.90
2023-03-06T10:26:21.183Z,5.20
2023-03-06T10:29:20.180Z,2.40
2023-03-06T10:32:00.339Z,1.90
2023-03-06T10:34:37.648Z,5.00
2023-03-06T10:37:20.994Z,3.20
2023-03-06T10:40:03.590Z,5.90
2023-03-06T10:42:30.264Z,3.20
2023-03-06T10:45:15.865Z,3.80
2023-03-06T10:47:43.626Z,4.70
2023-03-06T10:50:26.974Z,4.10
2023-03-06T10:53:04.988Z,5.70
2023-03-06T10:55:37.314Z,3.60
2023-03-06T10:58:19.417Z,3.20
2023-03-06T11:00:46.049Z,4.60
2023-03-06T11:03:24.831Z,4.50
2023-03-06T11:06:30.091Z,3.10
2023-03-06T11:09:24.963Z,3.70
2023-03-06T11:11:52.229Z,4.40
2023-03-06T11:14:22.470Z,5.10
2023-03-06T11:16:53.122Z,4.20
2023-03-06T11:19:25.928Z,4.40
2023-03-06T11:22:19.186Z,2.40
2023-03-06T11:24:53.066Z,3.70
2023-03-06T11:27:34.023Z,4.00
2023-03-06T11:30:17.162Z,2.50
2023-03-06T11:33:19.494Z,2.40
2023-03-06T11:35:57.844Z,3.60
2023-03-06T11:38:43.690Z,6.60
2023-03-06T11:41:26.321Z,4.50
2023-03-06T11:44:10.516Z,3.30
2023-03-06T11:46:42.970Z,4.70
2023-03-06T11:49:28.482Z,3.80
2023-03-06T11:52:02.885Z,3.60
2023-03-06T11:54:30.891Z,10.10
2023-03-06T11:57:03.928Z,3.90
2023-03-06T11:59:42.689Z,3.40
2023-03-06T12:02:43.531Z,6.80
2023-03-06T12:05:33.580Z,3.00
2023-03-06T12:08:57.914Z,3.20
2023-03-06T12:11:45.991Z,4.50
2023-03-06T12:15:09.809Z,4.10
2023-03-06T12:18:11.523Z,7.70
2023-03-06T12:21:01.899Z,3.50
2023-03-06T12:24:13.235Z,5.30
2023-03-06T12:26:56.684Z,2.40
2023-03-06T12:29:41.327Z,4.70
2023-03-06T12:32:26.744Z,2.40
2023-03-06T12:35:24.778Z,5.20
2023-03-06T12:38:29.072Z,3.80
2023-03-06T12:41:14.614Z,2.70
2023-03-06T12:44:08.477Z,5.10
2023-03-06T12:46:48.979Z,2.80
2023-03-06T12:49:32.344Z,4.00
2023-03-06T12:52:03.771Z,4.10
2023-03-06T12:54:38.097Z,4.10
2023-03-06T12:57:08.660Z,5.00
2023-03-06T12:59:47.242Z,7.60
2023-03-06T13:02:39.946Z,1.80
2023-03-06T13:05:34.065Z,2.00
2023-03-06T13:08:50.376Z,2.90
2023-03-06T13:11:57.274Z,1.40
2023-03-06T13:14:54.654Z,3.90
2023-03-06T13:17:37.889Z,2.70
2023-03-06T13:20:13.363Z,5.30
2023-03-06T13:22:46.038Z,6.90
2023-03-06T13:25:18.633Z,1.70
2023-03-06T13:27:46.862Z,3.50
2023-03-06T13:30:26.564Z,3.20
2023-03-06T13:32:55.570Z,8.40
2023-03-06T13:35:31.519Z,9.10
2023-03-06T13:38:00.358Z,24.00
2023-03-06T13:40:30.380Z,7.00
2023-03-06T13:43:21.170Z,5.40
2023-03-06T13:45:49.476Z,5.40
2023-03-06T13:48:44.170Z,13.70
2023-03-06T13:51:27.818Z,5.90
2023-03-06T13:54:32.002Z,4.00
2023-03-06T13:57:45.660Z,3.70
2023-03-06T14:01:07.767Z,4.80
2023-03-06T14:04:08.181Z,1.90
2023-03-06T14:06:34.786Z,5.90
2023-03-06T14:09:06.491Z,4.90
2023-03-06T14:11:36.926Z,5.70
2023-03-06T14:14:06.876Z,6.60
2023-03-06T14:16:49.879Z,7.60
2023-03-06T14:19:19.107Z,6.50
2023-03-06T14:21:54.932Z,6.00
2023-03-06T14:24:40.644Z,6.10
2023-03-06T14:27:17.030Z,7.20
2023-03-06T14:29:45.915Z,6.50
2023-03-06T14:32:16.481Z,5.80
2023-03-06T14:34:46.363Z,5.70
2023-03-06T14:37:36.107Z,6.90
2023-03-06T14:40:10.707Z,4.40
2023-03-06T14:42:37.182Z,7.40
2023-03-06T14:45:18.436Z,7.50
2023-03-06T14:47:53.107Z,4.60
2023-03-06T14:50:30.062Z,3.80
2023-03-06T14:53:03.631Z,4.00
2023-03-06T14:55:35.207Z,4.20
2023-03-06T14:58:11.971Z,6.50
2023-03-06T15:00:44.183Z,4.90
2023-03-06T15:03:26.190Z,8.10
2023-03-06T15:05:54.749Z,7.20
2023-03-06T15:08:30.613Z,10.30
2023-03-06T15:11:03.745Z,8.30
2023-03-06T15:13:33.573Z,6.70
2023-03-06T15:16:06.158Z,7.80
2023-03-06T15:18:42.084Z,5.20
2023-03-06T15:21:21.067Z,6.80
2023-03-06T15:23:50.907Z,8.20
2023-03-06T15:26:29.016Z,8.80
2023-03-06T15:29:18.994Z,7.40
2023-03-06T15:31:46.199Z,8.70
2023-03-06T15:34:17.934Z,7.80
2023-03-06T15:36:53.560Z,7.50
2023-03-06T15:39:40.877Z,5.90
2023-03-06T15:42:22.997Z,10.70
2023-03-06T15:44:57.100Z,8.70
2023-03-06T15:47:24.163Z,5.90
2023-03-06T15:49:52.529Z,7.10
2023-03-06T15:52:21.333Z,8.00
2023-03-06T15:54:48.318Z,6.60
2023-03-06T15:57:30.198Z,8.60
2023-03-06T15:59:59.961Z,13.70
2023-03-06T16:02:27.007Z,11.00
2023-03-06T16:04:53.841Z,9.60
2023-03-06T16:07:20.726Z,11.80
2023-03-06T16:09:47.944Z,11.30
2023-03-06T16:12:18.649Z,14.90
2023-03-06T16:14:47.424Z,12.90
2023-03-06T16:17:15.433Z,16.80
2023-03-06T16:19:42.869Z,13.40
2023-03-06T16:22:10.053Z,12.10
2023-03-06T16:24:37.099Z,14.50
2023-03-06T16:27:06.248Z,12.20
2023-03-06T16:29:32.941Z,11.40
2023-03-06T16:32:01.020Z,11.10
2023-03-06T16:34:27.498Z,12.90
2023-03-06T16:36:54.152Z,10.20
2023-03-06T16:39:23.644Z,10.40
2023-03-06T16:41:51.221Z,10.00
2023-03-06T16:44:19.032Z,11.80
2023-03-06T16:46:48.955Z,10.70
2023-03-06T16:49:21.122Z,14.60
2023-03-06T16:51:49.185Z,9.90
2023-03-06T16:54:15.705Z,12.40
2023-03-06T16:56:42.863Z,13.80
2023-03-06T16:59:10.840Z,13.40
2023-03-06T17:01:43.220Z,15.80
2023-03-06T17:04:11.497Z,11.70
2023-03-06T17:06:38.681Z,16.00
2023-03-06T17:09:05.323Z,16.70
2023-03-06T17:11:31.899Z,14.80
2023-03-06T17:13:58.996Z,17.70
2023-03-06T17:16:25.638Z,15.70
2023-03-06T17:18:52.087Z,10.40
2023-03-06T17:21:19.213Z,32.00
2023-03-06T17:23:46.053Z,31.60
2023-03-06T17:26:19.763Z,24.90
2023-03-06T17:28:46.769Z,16.40
2023-03-06T17:31:19.701Z,16.30
2023-03-06T17:34:07.318Z,7.00
2023-03-06T17:36:34.221Z,5.90
2023-03-06T17:39:02.464Z,6.00
2023-03-06T17:41:29.446Z,4.70
2023-03-06T17:43:57.568Z,4.80
2023-03-06T17:46:27.569Z,5.80
2023-03-06T17:48:57.583Z,7.80
2023-03-06T17:51:30.001Z,6.10
2023-03-06T17:53:56.810Z,4.00
2023-03-06T17:56:23.749Z,6.10
2023-03-06T17:58:50.495Z,4.30
2023-03-06T18:01:21.827Z,5.30
2023-03-06T18:03:50.365Z,8.00
2023-03-06T18:06:38.090Z,6.70
2023-03-06T18:09:09.600Z,4.90
2023-03-06T18:11:39.521Z,7.20
2023-03-06T18:14:12.613Z,8.40
2023-03-06T18:16:47.583Z,7.50
2023-03-06T18:19:15.808Z,8.10
2023-03-06T18:21:46.928Z,5.60
2023-03-06T18:24:13.710Z,6.70
2023-03-06T18:26:41.909Z,4.80
2023-03-06T18:29:08.910Z,5.10
2023-03-06T18:31:40.768Z,6.30
2023-03-06T18:34:14.153Z,6.00
2023-03-06T18:36:46.545Z,6.70
2023-03-06T18:39:15.444Z,6.90
2023-03-06T18:41:42.362Z,6.80
2023-03-06T18:44:15.892Z,5.90
2023-03-06T18:46:45.546Z,9.00
2023-03-06T18:49:13.506Z,6.40
2023-03-06T18:51:41.221Z,6.30
2023-03-06T18:54:12.125Z,6.10
2023-03-06T18:56:43.448Z,8.30
2023-03-06T18:59:17.530Z,8.80
2023-03-06T19:01:46.581Z,7.10
2023-03-06T19:04:13.821Z,6.60
2023-03-06T19:06:41.100Z,6.40
2023-03-06T19:09:07.601Z,5.50
2023-03-06T19:11:34.340Z,7.00
2023-03-06T19:14:01.218Z,7.70
2023-03-06T19:16:30.221Z,8.00
2023-03-06T19:18:58.699Z,7.60
2023-03-06T19:21:27.792Z,7.90
2023-03-06T19:23:56.642Z,6.50
2023-03-06T19:26:24.494Z,7.60
2023-03-06T19:28:54.822Z,10.30
2023-03-06T19:31:27.061Z,9.10
2023-03-06T19:33:56.274Z,10.30
2023-03-06T19:36:28.150Z,11.40
2023-03-06T19:38:58.138Z,9.80
2023-03-06T19:41:26.289Z,9.90
2023-03-06T19:43:57.870Z,13.40
2023-03-06T19:46:29.339Z,12.80
2023-03-06T19:49:00.010Z,11.60
2023-03-06T19:51:28.032Z,14.00
2023-03-06T19:53:56.964Z,13.80
2023-03-06T19:56:28.294Z,16.00
2023-03-06T19:58:55.685Z,16.60
2023-03-06T20:01:28.950Z,17.20
2023-03-06T20:04:00.413Z,12.40
2023-03-06T20:06:33.040Z,14.80
2023-03-06T20:09:02.937Z,15.20
2023-03-06T20:11:30.560Z,18.90
2023-03-06T20:14:00.997Z,20.30
2023-03-06T20:16:29.894Z,20.60
2023-03-06T20:18:59.668Z,21.20
2023-03-06T20:21:30.641Z,20.20
2023-03-06T20:23:58.147Z,23.20
2023-03-06T20:26:28.418Z,22.30
2023-03-06T20:28:56.144Z,15.90
2023-03-06T20:31:27.708Z,18.60
2023-03-06T20:33:58.942Z,19.60
2023-03-06T20:36:35.391Z,16.90
2023-03-06T20:39:08.378Z,18.80
2023-03-06T20:41:35.859Z,17.80
2023-03-06T20:44:06.584Z,19.90
2023-03-06T20:46:34.265Z,19.80
2023-03-06T20:49:01.669Z,23.00
2023-03-06T20:51:36.955Z,20.90
2023-03-06T20:54:04.423Z,22.30
2023-03-06T20:56:34.114Z,20.10
2023-03-06T20:59:01.263Z,23.00
2023-03-06T21:01:41.115Z,30.30
2023-03-06T21:04:10.624Z,21.90
2023-03-06T21:06:37.608Z,32.30
2023-03-06T21:09:06.422Z,26.90
2023-03-06T21:11:34.808Z,25.00
2023-03-06T21:14:02.436Z,25.10
2023-03-06T21:16:29.872Z,26.60
2023-03-06T21:18:59.231Z,26.90
2023-03-06T21:21:30.608Z,26.20
2023-03-06T21:23:57.217Z,24.10
2023-03-06T21:26:28.481Z,27.90
2023-03-06T21:28:59.136Z,27.00
2023-03-06T21:31:27.745Z,24.50
2023-03-06T21:33:54.721Z,27.80
2023-03-06T21:36:22.065Z,22.70
2023-03-06T21:38:50.682Z,27.30
2023-03-06T21:41:20.072Z,21.50
2023-03-06T21:43:47.033Z,24.00
2023-03-06T21:46:15.352Z,24.60
2023-03-06T21:48:49.093Z,22.30
2023-03-06T21:51:18.674Z,22.80
2023-03-06T21:53:47.793Z,25.30
2023-03-06T21:56:17.766Z,22.40
2023-03-06T21:58:45.258Z,29.90
2023-03-06T22:01:19.359Z,19.30
2023-03-06T22:03:46.239Z,21.70
2023-03-06T22:06:20.577Z,20.10
2023-03-06T22:08:47.040Z,19.80
2023-03-06T22:11:17.555Z,18.00
2023-03-06T22:13:44.600Z,17.90
2023-03-06T22:16:12.462Z,20.50
2023-03-06T22:18:39.658Z,20.00
2023-03-06T22:21:09.747Z,16.00
2023-03-06T22:23:36.410Z,18.50
2023-03-06T22:26:05.546Z,21.90
2023-03-06T22:28:32.172Z,20.30
2023-03-06T22:31:15.705Z,21.30
2023-03-06T22:33:42.930Z,21.40
2023-03-06T22:36:14.323Z,22.80
2023-03-06T22:38:43.972Z,20.90
2023-03-06T22:41:12.420Z,20.20
2023-03-06T22:43:39.112Z,21.90
2023-03-06T22:46:11.116Z,25.10
2023-03-06T22:48:37.761Z,22.00
2023-03-06T22:51:11.570Z,21.20
2023-03-06T22:53:39.334Z,24.90
2023-03-06T22:56:09.508Z,23.70
2023-03-06T22:58:37.497Z,21.90
2023-03-06T23:01:09.568Z,24.00
2023-03-06T23:03:38.933Z,20.10
2023-03-06T23:06:14.444Z,23.80
2023-03-06T23:08:41.850Z,21.60
2023-03-06T23:11:12.471Z,19.40
2023-03-06T23:13:39.406Z,20.80
2023-03-06T23:16:08.619Z,19.20
2023-03-06T23:18:37.036Z,19.40
2023-03-06T23:21:14.300Z,16.50
2023-03-06T23:23:40.975Z,18.80
2023-03-06T23:26:09.894Z,22.90
2023-03-06T23:28:36.663Z,18.80
2023-03-06T23:31:09.309Z,18.40
2023-03-06T23:33:38.106Z,16.70
2023-03-06T23:36:07.990Z,19.10
2023-03-06T23:38:35.004Z,15.70
2023-03-06T23:41:14.272Z,17.60
2023-03-06T23:43:41.451Z,15.90
2023-03-06T23:46:08.326Z,17.40
2023-03-06T23:48:37.529Z,17.90
2023-03-06T23:51:07.157Z,15.60
2023-03-06T23:53:34.624Z,16.90
2023-03-06T23:56:20.217Z,17.80
2023-03-06T23:58:47.559Z,15.00
